Weather at Břeclav Airport

Public forecast

Using degrees Celsius for public forecast. Weather courtesy of forecast.io.

Closest aviation weather report (METAR) to Břeclav Airport

Closest report is Brno-Tuřany Airport, 23.1 nm (42.7 km) NNW. Retrieved 2021/02/27 03:30 UTC (0 seconds ago):

LKTB 270330Z 31007KT 9999 FEW016 SCT046 03/01 Q1030 NOSIG

Closest aviation forecast (TAF) to Břeclav Airport

Forecast is more than 6 hours old.

Closest forecast is Brno-Tuřany Airport, 23.1 nm (42.7 km) NNW. Retrieved 2021/02/26 18:06 UTC (9 hours ago):

TAF LKTB 261700Z 2618/2800 34012KT 8000 NSC BECMG 2618/2620 9999 BKN027 TEMPO 2620/2700 4000 -RA BR BKN014 TEMPO 2700/2707 SCT025